FMCH

Prince Said Ibrahim International Airport

Moroni, Comoros
TAF FMCH 161700Z 1618/1724 VRB05KT 9999 FEW020 SCT030 BECMG 1705/1707 32010KT PROB30 TEMPO 1708/1714 4000 TS SHRA FEW020CB BKN025
Issued Valid From Valid To
Jan-16 @ 17:00 UTC
(12 hours ago)
Jan-16 @ 18:00 UTC
(11 hours ago)
Jan-18 @ 00:00 UTC
(in 19 hours)
Jan-16 @ 18:00 to Jan-17 @ 05:00
TAF FMCH 161700Z 1618/1724 VRB05KT 9999 FEW020 SCT030
Wind Visibility Clouds
Variable at 5 knots 10,000+ meters
  • Few at 2,000' AGL
  • Scattered at 3,000' AGL
Becoming Jan-17 @ 05:00 to Jan-18 @ 00:00
BECMG 1705/1707 32010KT
Wind Visibility Clouds
320° at 10 knots 10,000+ meters
  • Few at 2,000' AGL
  • Scattered at 3,000' AGL
Temporary  (Probability 30%) Jan-17 @ 08:00 to Jan-17 @ 14:00
PROB30 TEMPO 1708/1714 4000 TS SHRA FEW020CB BKN025
Visibility Clouds Conditions
4,007 meters
  • Few at 2,000' AGL
  • Broken at 2,500' AGL
  • Thunderstorm
  • Rain
TAF FMCH 161700Z 1618/1724 VRB05KT 9999 FEW020 SCT030 BECMG 1705/1707 32010KT PROB30 TEMPO 1708/1714 4000 TS SHRA FEW020CB BKN025
Issued Jan-16 @ 17:00 UTC
(12 hours ago)
Valid From Jan-16 @ 18:00 UTC
(11 hours ago)
Valid To Jan-18 @ 00:00 UTC
(in 19 hours)
Jan-16 @ 18:00 - Jan-17 @ 05:00
Wind Visibility
Variable at 5 knots 10,000+ meters
Clouds
  • Few at 2,000' AGL
  • Scattered at 3,000' AGL
Becoming Jan-17 @ 05:00 - Jan-18 @ 00:00
Wind Visibility
320° at 10 knots 10,000+ meters
Clouds
  • Few at 2,000' AGL
  • Scattered at 3,000' AGL
Probability 30% Temporary Jan-17 @ 08:00 - Jan-17 @ 14:00
Clouds
  • Few at 2,000' AGL
  • Broken at 2,500' AGL
Conditions
  • Thunderstorm
  • Rain